This is the latest recevied weather packets stored in our database for station/object DL7GAI-7. If no packets are shown the sender has not sent any weather packets the latest 10 day(s).
| Time | Temp. | Humidity | Pressure | Rain* | Wind** | Luminosity | Snow |
|---|---|---|---|---|---|---|---|
| 1777561315 | 17.22° C | 25% | 1022.1 hPa | 0 mm | 6.26 m/s, 90° | - | - |
| 1777560455 | 17.22° C | 25% | 1022.1 hPa | 0 mm | 6.26 m/s, 90° | - | - |
| 1777559691 | 17.22° C | 27% | 1021.9 hPa | 0 mm | 5.81 m/s, 45° | - | - |
| 1777558845 | 17.22° C | 27% | 1021.9 hPa | 0 mm | 5.81 m/s, 45° | - | - |
| 1777558057 | 17.22° C | 27% | 1021.9 hPa | 0 mm | 5.81 m/s, 45° | - | - |
| 1777557275 | 16.67° C | 27% | 1022.3 hPa | 0 mm | 5.36 m/s, 90° | - | - |
| 1777556413 | 16.67° C | 27% | 1022.3 hPa | 0 mm | 5.36 m/s, 90° | - | - |
| 1777555610 | 16.67° C | 30% | 1022.3 hPa | 0 mm | 6.26 m/s, 90° | - | - |
| 1777554765 | 16.67° C | 30% | 1022.3 hPa | 0 mm | 6.26 m/s, 90° | - | - |
| 1777553962 | 16.67° C | 31% | 1022.7 hPa | 0 mm | 5.36 m/s, 90° | - | - |
| 1777553160 | 16.67° C | 31% | 1022.7 hPa | 0 mm | 5.36 m/s, 90° | - | - |
| 1777552330 | 15.56° C | 32% | 1022.9 hPa | 0 mm | 4.92 m/s, 45° | - | - |
| 1777551505 | 15.56° C | 32% | 1022.9 hPa | 0 mm | 4.92 m/s, 45° | - | - |
| 1777550707 | 15.56° C | 33% | 1023.1 hPa | 0 mm | 5.81 m/s, 90° | - | - |
| 1777549871 | 15.56° C | 33% | 1023.1 hPa | 0 mm | 5.81 m/s, 90° | - | - |
| 1777549084 | 15.56° C | 33% | 1023.1 hPa | 0 mm | 5.81 m/s, 90° | - | - |
| 1777548300 | 15° C | 33% | 1023.3 hPa | 0 mm | 6.26 m/s, 45° | - | - |
| 1777547470 | 15° C | 33% | 1023.3 hPa | 0 mm | 6.26 m/s, 45° | - | - |
| 1777546657 | 13.89° C | 33% | 1023.5 hPa | 0 mm | 5.81 m/s, 90° | - | - |
| 1777545800 | 13.89° C | 33% | 1023.5 hPa | 0 mm | 5.81 m/s, 90° | - | - |
| 1777545018 | 13.33° C | 35% | 1023.7 hPa | 0 mm | 6.71 m/s, 90° | - | - |
| 1777544210 | 13.33° C | 35% | 1023.7 hPa | 0 mm | 6.71 m/s, 90° | - | - |
| 1777543455 | 12.78° C | 36% | 1023.8 hPa | 0 mm | 5.81 m/s, 90° | - | - |
| 1777542627 | 12.78° C | 36% | 1023.8 hPa | 0 mm | 5.81 m/s, 90° | - | - |
| 1777541820 | 12.78° C | 36% | 1023.8 hPa | 0 mm | 5.81 m/s, 90° | - | - |
* Rain latest hour (hover to see other rain measurements)
** Current wind speed in m/s (hover to see current wind gust speed)